PWSweather.com
Personal Weather Stations
Station Observations
IBRABANT12
Leuven, BlandenBE 3052

LeuvenBlandenBE 3052

Lat: 50.8252218, Lon: 4.709682799999996

Elevation: 193

Station Type: Davis Vantage Vue

http://www.weerstationblanden.be

Latest ConditionsUpdated 6:00:12 AM GMT+01:01 Wednesday, Sep 28, 2016
Currently Today's Max Today's Min Today's Average
Temperature 59.3°F15.2°C 60.8°F16.0°C 59.0°F15.0°C 59.9°F15.5°C
Dew Point 52.1°F11.2°C 52.1°F11.2°C 46.6°F8.1°C 48.4°F9.1°C
Winds 5.5 mph SW8.9 kmh SW 5.9 mph SSW9.5 kmh SSW - 4.1 mph 6.6 kmh
Wind Gusts 8.0 mph12.9 kmh 8.0 mph12.9 kmh - -
Humidity 77% 77% 60% 66%
Pressure 30.22 in1023.4 mb 30.25 in1024.4 mb 30.22 in1023.4 mb -
Hour Temp Dew Point Humidity Winds Wind Gusts Pressure Precip Precip Rate Daily Precip Total
06:00 AM 59.3°F15.2°C 52.1°F11.2°C 77% 5.5 mph SW8.9 kmh SW 8.0 mph12.9 kmh 30.22 in1023.4 mb - 0.00 in0.0 mm 0.00 in0.0 mm
05:50 AM 59.2°F15.1°C 51.6°F10.9°C 76% 4.1 mph SW6.6 kmh SW 7.0 mph11.3 kmh 30.22 in1023.4 mb - 0.00 in0.0 mm 0.00 in0.0 mm
05:40 AM 59.1°F15.1°C 51.5°F10.8°C 76% 4.9 mph SW7.9 kmh SW 7.0 mph11.3 kmh 30.22 in1023.4 mb - 0.00 in0.0 mm 0.00 in0.0 mm
05:30 AM 59.0°F15.0°C 51.1°F10.6°C 75% 4.7 mph SW7.6 kmh SW 6.0 mph9.7 kmh 30.23 in1023.7 mb - 0.00 in0.0 mm 0.00 in0.0 mm
05:20 AM 59.0°F15.0°C 51.1°F10.6°C 75% 5.1 mph SW8.2 kmh SW 7.0 mph11.3 kmh 30.22 in1023.4 mb - 0.00 in0.0 mm 0.00 in0.0 mm
05:10 AM 59.2°F15.1°C 50.5°F10.3°C 73% 4.0 mph SW6.4 kmh SW 6.0 mph9.7 kmh 30.22 in1023.4 mb - 0.00 in0.0 mm 0.00 in0.0 mm
05:00 AM 59.1°F15.1°C 50.5°F10.3°C 73% 5.5 mph SW8.9 kmh SW 8.0 mph12.9 kmh 30.22 in1023.4 mb - 0.00 in0.0 mm 0.00 in0.0 mm
04:50 AM 59.4°F15.2°C 50.4°F10.2°C 72% 3.1 mph S5.0 kmh S 4.0 mph6.4 kmh 30.23 in1023.7 mb - 0.00 in0.0 mm 0.00 in0.0 mm
04:40 AM 59.7°F15.4°C 49.9°F9.9°C 70% 3.0 mph SSW4.8 kmh SSW 4.0 mph6.4 kmh 30.22 in1023.4 mb - 0.00 in0.0 mm 0.00 in0.0 mm
04:30 AM 60.1°F15.6°C 49.9°F9.9°C 69% 2.3 mph SW3.7 kmh SW 4.0 mph6.4 kmh 30.23 in1023.7 mb - 0.00 in0.0 mm 0.00 in0.0 mm
04:20 AM 60.2°F15.7°C 49.6°F9.8°C 68% 3.7 mph SW6.0 kmh SW 8.0 mph12.9 kmh 30.23 in1023.7 mb - 0.00 in0.0 mm 0.00 in0.0 mm
04:10 AM 60.3°F15.7°C 49.3°F9.6°C 67% 3.8 mph SW6.1 kmh SW 5.0 mph8.0 kmh 30.23 in1023.7 mb - 0.00 in0.0 mm 0.00 in0.0 mm
04:00 AM 60.5°F15.8°C 49.1°F9.5°C 66% 4.3 mph SW6.9 kmh SW 7.0 mph11.3 kmh 30.23 in1023.7 mb - 0.00 in0.0 mm 0.00 in0.0 mm
03:50 AM 60.6°F15.9°C 49.2°F9.6°C 66% 5.4 mph SW8.7 kmh SW 6.0 mph9.7 kmh 30.23 in1023.7 mb - 0.00 in0.0 mm 0.00 in0.0 mm
03:40 AM 60.5°F15.8°C 48.7°F9.3°C 65% 4.2 mph SW6.8 kmh SW 6.0 mph9.7 kmh 30.23 in1023.7 mb - 0.00 in0.0 mm 0.00 in0.0 mm
03:30 AM 60.5°F15.8°C 48.3°F9.1°C 64% 3.6 mph SW5.8 kmh SW 5.0 mph8.0 kmh 30.23 in1023.7 mb - 0.00 in0.0 mm 0.00 in0.0 mm
03:20 AM 60.5°F15.8°C 48.3°F9.1°C 64% 3.7 mph SSW6.0 kmh SSW 7.0 mph11.3 kmh 30.23 in1023.7 mb - 0.00 in0.0 mm 0.00 in0.0 mm
03:10 AM 60.5°F15.8°C 47.8°F8.8°C 63% 4.4 mph SSW7.1 kmh SSW 6.0 mph9.7 kmh 30.23 in1023.7 mb - 0.00 in0.0 mm 0.00 in0.0 mm
03:00 AM 60.5°F15.8°C 47.8°F8.8°C 63% 3.3 mph SSW5.3 kmh SSW 7.0 mph11.3 kmh 30.24 in1024.0 mb - 0.00 in0.0 mm 0.00 in0.0 mm
02:50 AM 60.5°F15.8°C 47.8°F8.8°C 63% 2.5 mph SW4.0 kmh SW 4.0 mph6.4 kmh 30.24 in1024.0 mb - 0.00 in0.0 mm 0.00 in0.0 mm
02:40 AM 60.6°F15.9°C 47.5°F8.6°C 62% 3.5 mph SW5.6 kmh SW 6.0 mph9.7 kmh 30.24 in1024.0 mb - 0.00 in0.0 mm 0.00 in0.0 mm
02:30 AM 60.7°F15.9°C 47.2°F8.4°C 61% 5.3 mph SSW8.5 kmh SSW 7.0 mph11.3 kmh 30.25 in1024.4 mb - 0.00 in0.0 mm 0.00 in0.0 mm
02:20 AM 60.8°F16.0°C 47.3°F8.5°C 61% 4.6 mph SW7.4 kmh SW 5.0 mph8.0 kmh 30.24 in1024.0 mb - 0.00 in0.0 mm 0.00 in0.0 mm
02:10 AM 60.8°F16.0°C 46.8°F8.2°C 60% 5.0 mph SW8.0 kmh SW 6.0 mph9.7 kmh 30.24 in1024.0 mb - 0.00 in0.0 mm 0.00 in0.0 mm
02:00 AM 60.7°F15.9°C 46.7°F8.2°C 60% 5.9 mph SSW9.5 kmh SSW 8.0 mph12.9 kmh 30.24 in1024.0 mb - 0.00 in0.0 mm 0.00 in0.0 mm
01:50 AM 60.7°F15.9°C 46.7°F8.2°C 60% 5.7 mph SW9.2 kmh SW 8.0 mph12.9 kmh 30.24 in1024.0 mb - 0.00 in0.0 mm 0.00 in0.0 mm
01:40 AM 60.5°F15.8°C 46.9°F8.3°C 61% 4.7 mph SSW7.6 kmh SSW 7.0 mph11.3 kmh 30.24 in1024.0 mb - 0.00 in0.0 mm 0.00 in0.0 mm
01:30 AM 60.2°F15.7°C 46.7°F8.2°C 61% 4.4 mph SW7.1 kmh SW 6.0 mph9.7 kmh 30.24 in1024.0 mb - 0.00 in0.0 mm 0.00 in0.0 mm
01:20 AM 59.7°F15.4°C 46.7°F8.2°C 62% 4.1 mph SW6.6 kmh SW 5.0 mph8.0 kmh 30.24 in1024.0 mb - 0.00 in0.0 mm 0.00 in0.0 mm
01:10 AM 59.3°F15.2°C 46.7°F8.2°C 63% 3.3 mph SSW5.3 kmh SSW 7.0 mph11.3 kmh 30.24 in1024.0 mb - 0.00 in0.0 mm 0.00 in0.0 mm
01:00 AM 59.1°F15.1°C 46.6°F8.1°C 63% 3.6 mph SSW5.8 kmh SSW 5.0 mph8.0 kmh 30.24 in1024.0 mb - 0.00 in0.0 mm 0.00 in0.0 mm
12:50 AM 59.2°F15.1°C 46.6°F8.1°C 63% 4.3 mph SW6.9 kmh SW 6.0 mph9.7 kmh 30.24 in1024.0 mb - 0.00 in0.0 mm 0.00 in0.0 mm
12:40 AM 59.1°F15.1°C 46.9°F8.3°C 64% 4.9 mph SW7.9 kmh SW 7.0 mph11.3 kmh 30.24 in1024.0 mb - 0.00 in0.0 mm 0.00 in0.0 mm
12:30 AM 59.0°F15.0°C 46.9°F8.3°C 64% 4.1 mph SSW6.6 kmh SSW 5.0 mph8.0 kmh 30.24 in1024.0 mb - 0.00 in0.0 mm 0.00 in0.0 mm
12:20 AM 59.1°F15.1°C 46.9°F8.3°C 64% 3.2 mph SW5.1 kmh SW 4.0 mph6.4 kmh 30.25 in1024.4 mb - 0.00 in0.0 mm 0.00 in0.0 mm
12:10 AM 59.3°F15.2°C 47.1°F8.4°C 64% 3.2 mph SW5.1 kmh SW 4.0 mph6.4 kmh 30.24 in1024.0 mb - 0.00 in0.0 mm 0.00 in0.0 mm
12:00 AM 59.6°F15.3°C 47.0°F8.3°C 63% 2.4 mph S3.9 kmh S 3.0 mph4.8 kmh 30.25 in1024.4 mb - 0.00 in0.0 mm 0.00 in0.0 mm